sensor_id;sensor_type;location;lat;lon;timestamp;temperature;humidity
47757;SHT35;22147;52.388;13.390;2022-09-09T00:02:15;14.38;91.47
47757;SHT35;22147;52.388;13.390;2022-09-09T00:08:03;14.34;91.27
47757;SHT35;22147;52.388;13.390;2022-09-09T00:10:40;14.36;91.10
47757;SHT35;22147;52.388;13.390;2022-09-09T00:13:46;14.33;90.95
47757;SHT35;22147;52.388;13.390;2022-09-09T00:16:25;14.23;90.89
47757;SHT35;22147;52.388;13.390;2022-09-09T00:19:16;14.21;90.91
47757;SHT35;22147;52.388;13.390;2022-09-09T00:22:03;14.13;91.15
47757;SHT35;22147;52.388;13.390;2022-09-09T00:25:21;14.24;91.27
47757;SHT35;22147;52.388;13.390;2022-09-09T00:27:50;14.23;91.09
47757;SHT35;22147;52.388;13.390;2022-09-09T00:30:25;14.17;90.86
47757;SHT35;22147;52.388;13.390;2022-09-09T00:33:09;14.16;90.87
47757;SHT35;22147;52.388;13.390;2022-09-09T00:35:51;14.12;90.96
47757;SHT35;22147;52.388;13.390;2022-09-09T00:38:48;14.14;90.93
47757;SHT35;22147;52.388;13.390;2022-09-09T00:42:05;14.10;91.27
47757;SHT35;22147;52.388;13.390;2022-09-09T00:44:59;14.06;92.05
47757;SHT35;22147;52.388;13.390;2022-09-09T00:48:10;14.06;92.29
47757;SHT35;22147;52.388;13.390;2022-09-09T00:51:08;14.09;92.17
47757;SHT35;22147;52.388;13.390;2022-09-09T00:57:28;14.03;91.56
47757;SHT35;22147;52.388;13.390;2022-09-09T01:03:15;13.99;91.75
47757;SHT35;22147;52.388;13.390;2022-09-09T01:06:22;13.90;91.86
47757;SHT35;22147;52.388;13.390;2022-09-09T01:09:35;13.93;91.90
47757;SHT35;22147;52.388;13.390;2022-09-09T01:12:17;13.89;91.60
47757;SHT35;22147;52.388;13.390;2022-09-09T01:14:56;13.90;91.54
47757;SHT35;22147;52.388;13.390;2022-09-09T01:20:27;13.93;91.15
47757;SHT35;22147;52.388;13.390;2022-09-09T01:23:36;13.83;91.15
47757;SHT35;22147;52.388;13.390;2022-09-09T01:29:09;13.73;91.45
47757;SHT35;22147;52.388;13.390;2022-09-09T01:32:35;13.68;91.43
47757;SHT35;22147;52.388;13.390;2022-09-09T01:34:51;13.65;91.44
47757;SHT35;22147;52.388;13.390;2022-09-09T01:37:18;13.59;91.55
47757;SHT35;22147;52.388;13.390;2022-09-09T01:39:46;13.59;91.63
47757;SHT35;22147;52.388;13.390;2022-09-09T01:42:17;13.61;91.63
47757;SHT35;22147;52.388;13.390;2022-09-09T01:44:44;13.57;91.50
47757;SHT35;22147;52.388;13.390;2022-09-09T01:47:12;13.54;91.51
47757;SHT35;22147;52.388;13.390;2022-09-09T01:49:39;13.55;91.56
47757;SHT35;22147;52.388;13.390;2022-09-09T01:52:06;13.55;91.48
47757;SHT35;22147;52.388;13.390;2022-09-09T01:54:35;13.57;91.44
47757;SHT35;22147;52.388;13.390;2022-09-09T02:00:37;13.57;91.17
47757;SHT35;22147;52.388;13.390;2022-09-09T02:03:32;13.57;91.08
47757;SHT35;22147;52.388;13.390;2022-09-09T02:06:34;13.55;90.84
47757;SHT35;22147;52.388;13.390;2022-09-09T02:09:10;13.54;90.67
47757;SHT35;22147;52.388;13.390;2022-09-09T02:11:39;13.57;90.61
47757;SHT35;22147;52.388;13.390;2022-09-09T02:14:23;13.51;90.43
47757;SHT35;22147;52.388;13.390;2022-09-09T02:17:03;13.49;90.58
47757;SHT35;22147;52.388;13.390;2022-09-09T02:19:50;13.35;90.81
47757;SHT35;22147;52.388;13.390;2022-09-09T02:22:27;13.37;91.05
47757;SHT35;22147;52.388;13.390;2022-09-09T02:25:00;13.37;91.04
47757;SHT35;22147;52.388;13.390;2022-09-09T02:27:28;13.30;91.26
47757;SHT35;22147;52.388;13.390;2022-09-09T02:30:02;13.26;91.61
47757;SHT35;22147;52.388;13.390;2022-09-09T02:32:36;13.21;92.09
47757;SHT35;22147;52.388;13.390;2022-09-09T02:35:18;13.16;92.27
47757;SHT35;22147;52.388;13.390;2022-09-09T02:37:50;13.08;92.50
47757;SHT35;22147;52.388;13.390;2022-09-09T02:40:18;13.01;92.82
47757;SHT35;22147;52.388;13.390;2022-09-09T02:42:49;13.06;93.03
47757;SHT35;22147;52.388;13.390;2022-09-09T02:45:29;13.07;93.32
47757;SHT35;22147;52.388;13.390;2022-09-09T02:49:07;13.16;93.33
47757;SHT35;22147;52.388;13.390;2022-09-09T02:54:34;13.27;93.43
47757;SHT35;22147;52.388;13.390;2022-09-09T02:57:28;13.27;93.40
47757;SHT35;22147;52.388;13.390;2022-09-09T03:00:00;13.16;93.37
47757;SHT35;22147;52.388;13.390;2022-09-09T03:02:28;13.14;93.46
47757;SHT35;22147;52.388;13.390;2022-09-09T03:04:56;13.14;93.50
47757;SHT35;22147;52.388;13.390;2022-09-09T03:07:23;13.16;93.62
47757;SHT35;22147;52.388;13.390;2022-09-09T03:09:50;13.21;93.71
47757;SHT35;22147;52.388;13.390;2022-09-09T03:12:17;13.20;93.72
47757;SHT35;22147;52.388;13.390;2022-09-09T03:14:45;13.17;93.85
47757;SHT35;22147;52.388;13.390;2022-09-09T03:17:12;13.21;93.90
47757;SHT35;22147;52.388;13.390;2022-09-09T03:19:39;13.19;93.89
47757;SHT35;22147;52.388;13.390;2022-09-09T03:22:10;13.20;93.90
47757;SHT35;22147;52.388;13.390;2022-09-09T03:24:38;13.23;93.84
47757;SHT35;22147;52.388;13.390;2022-09-09T03:27:05;13.23;93.80
47757;SHT35;22147;52.388;13.390;2022-09-09T03:29:32;13.19;93.91
47757;SHT35;22147;52.388;13.390;2022-09-09T03:31:59;13.17;93.88
47757;SHT35;22147;52.388;13.390;2022-09-09T03:34:26;13.07;93.92
47757;SHT35;22147;52.388;13.390;2022-09-09T03:36:53;13.06;94.01
47757;SHT35;22147;52.388;13.390;2022-09-09T03:39:20;13.03;93.96
47757;SHT35;22147;52.388;13.390;2022-09-09T03:41:47;13.01;93.90
47757;SHT35;22147;52.388;13.390;2022-09-09T03:44:15;12.93;93.89
47757;SHT35;22147;52.388;13.390;2022-09-09T03:46:42;12.93;94.00
47757;SHT35;22147;52.388;13.390;2022-09-09T03:49:09;12.93;93.96
47757;SHT35;22147;52.388;13.390;2022-09-09T03:51:37;12.93;93.89
47757;SHT35;22147;52.388;13.390;2022-09-09T03:54:05;12.89;93.77
47757;SHT35;22147;52.388;13.390;2022-09-09T03:56:35;12.89;93.73
47757;SHT35;22147;52.388;13.390;2022-09-09T03:59:03;12.87;93.62
47757;SHT35;22147;52.388;13.390;2022-09-09T04:01:30;12.89;93.56
47757;SHT35;22147;52.388;13.390;2022-09-09T04:03:57;12.87;93.28
47757;SHT35;22147;52.388;13.390;2022-09-09T04:06:25;12.92;93.14
47757;SHT35;22147;52.388;13.390;2022-09-09T04:08:52;12.89;92.93
47757;SHT35;22147;52.388;13.390;2022-09-09T04:11:19;12.83;92.67
47757;SHT35;22147;52.388;13.390;2022-09-09T04:13:47;12.84;92.73
47757;SHT35;22147;52.388;13.390;2022-09-09T04:16:16;12.84;92.60
47757;SHT35;22147;52.388;13.390;2022-09-09T04:18:43;12.86;92.66
47757;SHT35;22147;52.388;13.390;2022-09-09T04:21:10;12.82;92.69
47757;SHT35;22147;52.388;13.390;2022-09-09T04:23:39;12.80;92.80
47757;SHT35;22147;52.388;13.390;2022-09-09T04:26:06;12.86;92.86
47757;SHT35;22147;52.388;13.390;2022-09-09T04:28:36;12.89;92.78
47757;SHT35;22147;52.388;13.390;2022-09-09T04:31:21;12.93;92.64
47757;SHT35;22147;52.388;13.390;2022-09-09T04:33:51;12.93;92.46
47757;SHT35;22147;52.388;13.390;2022-09-09T04:36:19;12.82;92.65
47757;SHT35;22147;52.388;13.390;2022-09-09T04:38:46;12.84;92.93
47757;SHT35;22147;52.388;13.390;2022-09-09T04:41:16;12.83;93.00
47757;SHT35;22147;52.388;13.390;2022-09-09T04:43:43;12.86;93.11
47757;SHT35;22147;52.388;13.390;2022-09-09T04:46:10;12.96;93.47
47757;SHT35;22147;52.388;13.390;2022-09-09T04:48:37;12.99;93.54
47757;SHT35;22147;52.388;13.390;2022-09-09T04:51:11;12.96;93.64
47757;SHT35;22147;52.388;13.390;2022-09-09T04:53:39;13.00;93.67
47757;SHT35;22147;52.388;13.390;2022-09-09T04:56:16;13.04;93.64
47757;SHT35;22147;52.388;13.390;2022-09-09T04:58:44;13.11;93.69
47757;SHT35;22147;52.388;13.390;2022-09-09T05:01:15;13.16;93.75
47757;SHT35;22147;52.388;13.390;2022-09-09T05:03:46;13.19;93.75
47757;SHT35;22147;52.388;13.390;2022-09-09T05:06:21;13.26;93.79
47757;SHT35;22147;52.388;13.390;2022-09-09T05:08:48;13.27;93.72
47757;SHT35;22147;52.388;13.390;2022-09-09T05:11:26;13.32;93.73
47757;SHT35;22147;52.388;13.390;2022-09-09T05:13:55;13.38;93.78
47757;SHT35;22147;52.388;13.390;2022-09-09T05:16:24;13.45;93.76
47757;SHT35;22147;52.388;13.390;2022-09-09T05:18:51;13.52;93.61
47757;SHT35;22147;52.388;13.390;2022-09-09T05:21:22;13.61;93.54
47757;SHT35;22147;52.388;13.390;2022-09-09T05:23:50;13.62;93.38
47757;SHT35;22147;52.388;13.390;2022-09-09T05:26:22;13.66;93.27
47757;SHT35;22147;52.388;13.390;2022-09-09T05:28:50;13.76;93.10
47757;SHT35;22147;52.388;13.390;2022-09-09T05:31:19;13.82;93.00
47757;SHT35;22147;52.388;13.390;2022-09-09T05:33:48;13.92;92.82
47757;SHT35;22147;52.388;13.390;2022-09-09T05:36:22;13.96;92.53
47757;SHT35;22147;52.388;13.390;2022-09-09T05:38:49;13.98;92.41
47757;SHT35;22147;52.388;13.390;2022-09-09T05:41:17;14.00;92.34
47757;SHT35;22147;52.388;13.390;2022-09-09T05:43:46;14.06;92.26
47757;SHT35;22147;52.388;13.390;2022-09-09T05:46:23;14.13;92.27
47757;SHT35;22147;52.388;13.390;2022-09-09T05:48:53;14.20;92.29
47757;SHT35;22147;52.388;13.390;2022-09-09T05:51:26;14.20;92.22
47757;SHT35;22147;52.388;13.390;2022-09-09T05:53:53;14.30;92.21
47757;SHT35;22147;52.388;13.390;2022-09-09T05:56:26;14.40;91.76
47757;SHT35;22147;52.388;13.390;2022-09-09T05:58:56;14.50;91.63
47757;SHT35;22147;52.388;13.390;2022-09-09T06:01:33;14.63;91.71
47757;SHT35;22147;52.388;13.390;2022-09-09T06:04:02;14.69;91.08
47757;SHT35;22147;52.388;13.390;2022-09-09T06:06:35;14.78;90.75
47757;SHT35;22147;52.388;13.390;2022-09-09T06:09:06;14.84;90.34
47757;SHT35;22147;52.388;13.390;2022-09-09T06:11:39;15.00;90.41
47757;SHT35;22147;52.388;13.390;2022-09-09T06:14:08;15.12;90.28
47757;SHT35;22147;52.388;13.390;2022-09-09T06:16:35;15.22;90.07
47757;SHT35;22147;52.388;13.390;2022-09-09T06:19:05;15.33;88.90
47757;SHT35;22147;52.388;13.390;2022-09-09T06:21:36;15.57;89.38
47757;SHT35;22147;52.388;13.390;2022-09-09T06:24:05;15.58;89.37
47757;SHT35;22147;52.388;13.390;2022-09-09T06:26:38;15.53;88.89
47757;SHT35;22147;52.388;13.390;2022-09-09T06:29:09;15.49;89.01
47757;SHT35;22147;52.388;13.390;2022-09-09T06:31:37;15.36;89.44
47757;SHT35;22147;52.388;13.390;2022-09-09T06:34:08;15.34;89.31
47757;SHT35;22147;52.388;13.390;2022-09-09T06:36:39;15.46;89.85
47757;SHT35;22147;52.388;13.390;2022-09-09T06:39:08;15.74;89.65
47757;SHT35;22147;52.388;13.390;2022-09-09T06:41:41;16.11;88.17
47757;SHT35;22147;52.388;13.390;2022-09-09T06:44:09;16.23;87.63
47757;SHT35;22147;52.388;13.390;2022-09-09T06:46:39;16.50;87.66
47757;SHT35;22147;52.388;13.390;2022-09-09T06:49:08;16.39;86.93
47757;SHT35;22147;52.388;13.390;2022-09-09T06:51:38;16.87;87.52
47757;SHT35;22147;52.388;13.390;2022-09-09T06:54:13;17.09;86.35
47757;SHT35;22147;52.388;13.390;2022-09-09T06:56:42;17.11;85.98
47757;SHT35;22147;52.388;13.390;2022-09-09T06:59:11;17.34;85.45
47757;SHT35;22147;52.388;13.390;2022-09-09T07:01:42;17.60;83.17
47757;SHT35;22147;52.388;13.390;2022-09-09T07:04:21;17.59;83.05
47757;SHT35;22147;52.388;13.390;2022-09-09T07:06:48;17.32;82.45
47757;SHT35;22147;52.388;13.390;2022-09-09T07:09:16;17.16;84.54
47757;SHT35;22147;52.388;13.390;2022-09-09T07:11:50;17.28;84.31
47757;SHT35;22147;52.388;13.390;2022-09-09T07:14:20;17.62;83.46
47757;SHT35;22147;52.388;13.390;2022-09-09T07:16:47;17.90;83.04
47757;SHT35;22147;52.388;13.390;2022-09-09T07:19:14;18.03;80.66
47757;SHT35;22147;52.388;13.390;2022-09-09T07:21:43;18.17;81.31
47757;SHT35;22147;52.388;13.390;2022-09-09T07:24:11;18.21;82.19
47757;SHT35;22147;52.388;13.390;2022-09-09T07:26:40;18.35;81.63
47757;SHT35;22147;52.388;13.390;2022-09-09T07:29:08;18.45;80.56
47757;SHT35;22147;52.388;13.390;2022-09-09T07:31:39;18.76;80.71
47757;SHT35;22147;52.388;13.390;2022-09-09T07:34:07;19.15;79.06
47757;SHT35;22147;52.388;13.390;2022-09-09T07:36:39;19.41;78.04
47757;SHT35;22147;52.388;13.390;2022-09-09T07:39:12;19.57;78.34
47757;SHT35;22147;52.388;13.390;2022-09-09T07:41:47;19.15;75.41
47757;SHT35;22147;52.388;13.390;2022-09-09T07:44:24;19.10;77.93
47757;SHT35;22147;52.388;13.390;2022-09-09T07:46:54;19.35;77.59
47757;SHT35;22147;52.388;13.390;2022-09-09T07:49:21;19.06;78.23
47757;SHT35;22147;52.388;13.390;2022-09-09T07:51:58;18.87;78.24
47757;SHT35;22147;52.388;13.390;2022-09-09T07:54:26;19.23;77.29
47757;SHT35;22147;52.388;13.390;2022-09-09T07:56:53;19.27;75.65
47757;SHT35;22147;52.388;13.390;2022-09-09T07:59:20;19.45;77.38
47757;SHT35;22147;52.388;13.390;2022-09-09T08:01:51;19.54;76.11
47757;SHT35;22147;52.388;13.390;2022-09-09T08:04:24;19.71;77.47
47757;SHT35;22147;52.388;13.390;2022-09-09T08:07:00;19.63;75.17
47757;SHT35;22147;52.388;13.390;2022-09-09T08:09:30;19.73;75.33
47757;SHT35;22147;52.388;13.390;2022-09-09T08:11:59;19.48;75.86
47757;SHT35;22147;52.388;13.390;2022-09-09T08:14:28;19.69;76.12
47757;SHT35;22147;52.388;13.390;2022-09-09T08:16:56;19.92;75.98
47757;SHT35;22147;52.388;13.390;2022-09-09T08:19:23;19.85;75.37
47757;SHT35;22147;52.388;13.390;2022-09-09T08:21:51;19.85;75.53
47757;SHT35;22147;52.388;13.390;2022-09-09T08:24:18;19.87;78.47
47757;SHT35;22147;52.388;13.390;2022-09-09T08:26:49;19.61;77.45
47757;SHT35;22147;52.388;13.390;2022-09-09T08:29:18;19.47;76.25
47757;SHT35;22147;52.388;13.390;2022-09-09T08:31:53;19.32;77.70
47757;SHT35;22147;52.388;13.390;2022-09-09T08:34:22;19.23;78.11
47757;SHT35;22147;52.388;13.390;2022-09-09T08:36:51;19.06;76.89
47757;SHT35;22147;52.388;13.390;2022-09-09T08:39:21;18.90;78.54
47757;SHT35;22147;52.388;13.390;2022-09-09T08:45:27;18.73;77.00
47757;SHT35;22147;52.388;13.390;2022-09-09T08:48:32;18.80;78.32
47757;SHT35;22147;52.388;13.390;2022-09-09T08:51:05;18.77;78.46
47757;SHT35;22147;52.388;13.390;2022-09-09T08:53:50;18.94;76.73
47757;SHT35;22147;52.388;13.390;2022-09-09T08:56:31;19.02;77.18
47757;SHT35;22147;52.388;13.390;2022-09-09T08:59:03;19.14;76.27
47757;SHT35;22147;52.388;13.390;2022-09-09T09:01:43;19.50;77.06
47757;SHT35;22147;52.388;13.390;2022-09-09T09:04:50;19.37;76.15
47757;SHT35;22147;52.388;13.390;2022-09-09T09:10:51;19.93;74.39
47757;SHT35;22147;52.388;13.390;2022-09-09T09:13:56;20.26;72.56
47757;SHT35;22147;52.388;13.390;2022-09-09T09:16:53;20.13;72.01
47757;SHT35;22147;52.388;13.390;2022-09-09T09:19:23;20.36;71.72
47757;SHT35;22147;52.388;13.390;2022-09-09T09:22:51;20.44;71.64
47757;SHT35;22147;52.388;13.390;2022-09-09T09:25:27;20.63;72.15
47757;SHT35;22147;52.388;13.390;2022-09-09T09:28:16;20.94;73.61
47757;SHT35;22147;52.388;13.390;2022-09-09T09:31:13;21.46;70.62
47757;SHT35;22147;52.388;13.390;2022-09-09T09:36:11;21.49;67.62
47757;SHT35;22147;52.388;13.390;2022-09-09T09:38:55;21.50;68.29
47757;SHT35;22147;52.388;13.390;2022-09-09T09:41:43;21.50;68.03
47757;SHT35;22147;52.388;13.390;2022-09-09T09:44:43;21.37;69.01
47757;SHT35;22147;52.388;13.390;2022-09-09T09:47:22;21.69;70.50
47757;SHT35;22147;52.388;13.390;2022-09-09T09:50:00;21.98;69.72
47757;SHT35;22147;52.388;13.390;2022-09-09T09:52:31;22.18;67.68
47757;SHT35;22147;52.388;13.390;2022-09-09T09:55:04;22.45;66.76
47757;SHT35;22147;52.388;13.390;2022-09-09T09:57:39;22.29;67.44
47757;SHT35;22147;52.388;13.390;2022-09-09T10:00:20;22.00;66.16
47757;SHT35;22147;52.388;13.390;2022-09-09T10:02:49;21.91;67.36
47757;SHT35;22147;52.388;13.390;2022-09-09T10:05:28;22.20;69.42
47757;SHT35;22147;52.388;13.390;2022-09-09T10:08:10;22.42;65.71
47757;SHT35;22147;52.388;13.390;2022-09-09T10:11:02;22.01;68.09
47757;SHT35;22147;52.388;13.390;2022-09-09T10:24:02;21.77;67.14
47757;SHT35;22147;52.388;13.390;2022-09-09T10:30:01;22.17;68.22
47757;SHT35;22147;52.388;13.390;2022-09-09T10:36:16;21.95;67.25
47757;SHT35;22147;52.388;13.390;2022-09-09T10:39:26;21.98;67.45
47757;SHT35;22147;52.388;13.390;2022-09-09T10:42:18;21.81;64.96
47757;SHT35;22147;52.388;13.390;2022-09-09T10:45:18;21.81;67.17
47757;SHT35;22147;52.388;13.390;2022-09-09T10:48:31;22.43;67.95
47757;SHT35;22147;52.388;13.390;2022-09-09T10:51:48;22.75;65.47
47757;SHT35;22147;52.388;13.390;2022-09-09T10:55:09;22.84;62.22
47757;SHT35;22147;52.388;13.390;2022-09-09T10:57:51;22.81;65.40
47757;SHT35;22147;52.388;13.390;2022-09-09T11:00:44;22.66;63.65
47757;SHT35;22147;52.388;13.390;2022-09-09T11:03:28;22.15;65.05
47757;SHT35;22147;52.388;13.390;2022-09-09T11:06:14;21.90;66.23
47757;SHT35;22147;52.388;13.390;2022-09-09T11:08:45;22.25;68.40
47757;SHT35;22147;52.388;13.390;2022-09-09T11:11:42;22.49;62.95
47757;SHT35;22147;52.388;13.390;2022-09-09T11:14:49;22.56;64.54
47757;SHT35;22147;52.388;13.390;2022-09-09T11:17:38;22.63;63.04
47757;SHT35;22147;52.388;13.390;2022-09-09T11:20:13;22.43;63.45
47757;SHT35;22147;52.388;13.390;2022-09-09T11:23:03;22.31;65.39
47757;SHT35;22147;52.388;13.390;2022-09-09T11:25:56;22.73;66.88
47757;SHT35;22147;52.388;13.390;2022-09-09T11:32:52;22.36;65.46
47757;SHT35;22147;52.388;13.390;2022-09-09T11:35:42;22.55;65.68
47757;SHT35;22147;52.388;13.390;2022-09-09T11:38:46;22.63;64.04
47757;SHT35;22147;52.388;13.390;2022-09-09T11:41:16;22.87;63.90
47757;SHT35;22147;52.388;13.390;2022-09-09T11:43:52;23.21;61.87
47757;SHT35;22147;52.388;13.390;2022-09-09T11:46:36;23.52;61.78
47757;SHT35;22147;52.388;13.390;2022-09-09T11:49:26;23.30;61.41
47757;SHT35;22147;52.388;13.390;2022-09-09T11:51:54;23.54;60.11
47757;SHT35;22147;52.388;13.390;2022-09-09T11:54:46;23.18;61.27
47757;SHT35;22147;52.388;13.390;2022-09-09T11:57:38;23.21;63.19
47757;SHT35;22147;52.388;13.390;2022-09-09T12:00:06;23.42;59.94
47757;SHT35;22147;52.388;13.390;2022-09-09T12:02:34;23.42;58.76
47757;SHT35;22147;52.388;13.390;2022-09-09T12:05:12;23.39;59.29
47757;SHT35;22147;52.388;13.390;2022-09-09T12:07:55;23.33;58.83
47757;SHT35;22147;52.388;13.390;2022-09-09T12:10:33;23.33;60.30
47757;SHT35;22147;52.388;13.390;2022-09-09T12:13:36;23.24;61.58
47757;SHT35;22147;52.388;13.390;2022-09-09T12:16:03;23.47;60.92
47757;SHT35;22147;52.388;13.390;2022-09-09T12:18:39;23.66;60.10
47757;SHT35;22147;52.388;13.390;2022-09-09T12:21:54;23.69;60.39
47757;SHT35;22147;52.388;13.390;2022-09-09T12:25:14;23.49;58.50
47757;SHT35;22147;52.388;13.390;2022-09-09T12:31:24;23.16;60.15
47757;SHT35;22147;52.388;13.390;2022-09-09T12:33:52;23.13;60.67
47757;SHT35;22147;52.388;13.390;2022-09-09T12:36:29;23.07;59.76
47757;SHT35;22147;52.388;13.390;2022-09-09T12:39:31;23.14;62.46
47757;SHT35;22147;52.388;13.390;2022-09-09T12:41:59;23.24;61.69
47757;SHT35;22147;52.388;13.390;2022-09-09T12:44:27;23.33;60.66
47757;SHT35;22147;52.388;13.390;2022-09-09T12:47:03;23.14;60.76
47757;SHT35;22147;52.388;13.390;2022-09-09T12:49:39;22.97;59.09
47757;SHT35;22147;52.388;13.390;2022-09-09T12:52:31;22.86;60.54
47757;SHT35;22147;52.388;13.390;2022-09-09T12:55:05;22.80;60.52
47757;SHT35;22147;52.388;13.390;2022-09-09T12:57:39;22.72;62.79
47757;SHT35;22147;52.388;13.390;2022-09-09T13:00:20;22.93;61.37
47757;SHT35;22147;52.388;13.390;2022-09-09T13:03:00;23.14;62.94
47757;SHT35;22147;52.388;13.390;2022-09-09T13:05:38;23.06;58.97
47757;SHT35;22147;52.388;13.390;2022-09-09T13:08:13;23.14;61.51
47757;SHT35;22147;52.388;13.390;2022-09-09T13:10:53;23.24;60.74
47757;SHT35;22147;52.388;13.390;2022-09-09T13:13:37;23.33;61.28
47757;SHT35;22147;52.388;13.390;2022-09-09T13:16:25;23.39;60.39
47757;SHT35;22147;52.388;13.390;2022-09-09T13:18:54;23.34;62.86
47757;SHT35;22147;52.388;13.390;2022-09-09T13:21:35;23.28;62.07
47757;SHT35;22147;52.388;13.390;2022-09-09T13:24:31;23.17;62.96
47757;SHT35;22147;52.388;13.390;2022-09-09T13:27:34;23.23;60.54
47757;SHT35;22147;52.388;13.390;2022-09-09T13:30:37;23.30;60.73
47757;SHT35;22147;52.388;13.390;2022-09-09T13:36:02;23.30;62.63
47757;SHT35;22147;52.388;13.390;2022-09-09T13:38:53;23.07;63.65
47757;SHT35;22147;52.388;13.390;2022-09-09T13:41:34;23.07;62.29
47757;SHT35;22147;52.388;13.390;2022-09-09T13:44:04;23.04;63.45
47757;SHT35;22147;52.388;13.390;2022-09-09T13:46:40;23.00;62.91
47757;SHT35;22147;52.388;13.390;2022-09-09T13:51:46;22.97;63.49
47757;SHT35;22147;52.388;13.390;2022-09-09T13:54:20;22.83;63.27
47757;SHT35;22147;52.388;13.390;2022-09-09T13:56:48;22.83;62.87
47757;SHT35;22147;52.388;13.390;2022-09-09T13:59:19;22.70;65.90
47757;SHT35;22147;52.388;13.390;2022-09-09T14:01:47;22.59;68.23
47757;SHT35;22147;52.388;13.390;2022-09-09T14:04:15;22.41;71.30
47757;SHT35;22147;52.388;13.390;2022-09-09T14:06:43;22.22;72.03
47757;SHT35;22147;52.388;13.390;2022-09-09T14:09:16;22.04;71.09
47757;SHT35;22147;52.388;13.390;2022-09-09T14:11:45;21.94;71.56
47757;SHT35;22147;52.388;13.390;2022-09-09T14:14:15;21.92;71.26
47757;SHT35;22147;52.388;13.390;2022-09-09T14:16:42;21.87;71.48
47757;SHT35;22147;52.388;13.390;2022-09-09T14:19:09;21.70;72.43
47757;SHT35;22147;52.388;13.390;2022-09-09T14:21:36;21.64;71.31
47757;SHT35;22147;52.388;13.390;2022-09-09T14:24:04;21.49;72.40
47757;SHT35;22147;52.388;13.390;2022-09-09T14:26:31;21.37;73.31
47757;SHT35;22147;52.388;13.390;2022-09-09T14:28:59;21.20;73.76
47757;SHT35;22147;52.388;13.390;2022-09-09T14:31:28;21.27;73.11
47757;SHT35;22147;52.388;13.390;2022-09-09T14:33:55;21.15;73.82
47757;SHT35;22147;52.388;13.390;2022-09-09T14:36:22;20.98;73.46
47757;SHT35;22147;52.388;13.390;2022-09-09T14:38:51;21.14;74.32
47757;SHT35;22147;52.388;13.390;2022-09-09T14:41:20;21.05;71.87
47757;SHT35;22147;52.388;13.390;2022-09-09T14:43:49;20.96;71.19
47757;SHT35;22147;52.388;13.390;2022-09-09T14:46:20;21.06;70.11
47757;SHT35;22147;52.388;13.390;2022-09-09T14:48:47;21.25;69.61
47757;SHT35;22147;52.388;13.390;2022-09-09T14:51:22;21.30;69.96
47757;SHT35;22147;52.388;13.390;2022-09-09T14:53:56;21.57;70.91
47757;SHT35;22147;52.388;13.390;2022-09-09T14:56:29;21.43;69.26
47757;SHT35;22147;52.388;13.390;2022-09-09T14:58:59;21.32;71.41
47757;SHT35;22147;52.388;13.390;2022-09-09T15:01:31;21.47;73.43
47757;SHT35;22147;52.388;13.390;2022-09-09T15:04:04;21.64;75.17
47757;SHT35;22147;52.388;13.390;2022-09-09T15:06:35;21.97;69.83
47757;SHT35;22147;52.388;13.390;2022-09-09T15:09:06;22.35;65.79
47757;SHT35;22147;52.388;13.390;2022-09-09T15:11:36;23.04;61.04
47757;SHT35;22147;52.388;13.390;2022-09-09T15:14:08;23.39;55.94
47757;SHT35;22147;52.388;13.390;2022-09-09T15:16:36;23.83;59.27
47757;SHT35;22147;52.388;13.390;2022-09-09T15:19:03;24.04;56.70
47757;SHT35;22147;52.388;13.390;2022-09-09T15:21:36;23.93;62.77
47757;SHT35;22147;52.388;13.390;2022-09-09T15:24:04;23.47;62.83
47757;SHT35;22147;52.388;13.390;2022-09-09T15:26:31;23.24;65.31
47757;SHT35;22147;52.388;13.390;2022-09-09T15:28:59;23.14;63.61
47757;SHT35;22147;52.388;13.390;2022-09-09T15:31:31;23.82;61.86
47757;SHT35;22147;52.388;13.390;2022-09-09T15:34:06;24.51;61.21
47757;SHT35;22147;52.388;13.390;2022-09-09T15:36:39;25.16;56.41
47757;SHT35;22147;52.388;13.390;2022-09-09T15:39:15;25.74;54.58
47757;SHT35;22147;52.388;13.390;2022-09-09T15:41:45;26.02;52.98
47757;SHT35;22147;52.388;13.390;2022-09-09T15:44:15;26.10;54.42
47757;SHT35;22147;52.388;13.390;2022-09-09T15:46:51;26.05;53.65
47757;SHT35;22147;52.388;13.390;2022-09-09T15:49:26;25.51;53.75
47757;SHT35;22147;52.388;13.390;2022-09-09T15:51:57;25.02;55.67
47757;SHT35;22147;52.388;13.390;2022-09-09T15:54:26;24.50;57.30
47757;SHT35;22147;52.388;13.390;2022-09-09T15:57:03;24.04;58.92
47757;SHT35;22147;52.388;13.390;2022-09-09T15:59:32;23.76;62.40
47757;SHT35;22147;52.388;13.390;2022-09-09T16:02:01;23.48;61.10
47757;SHT35;22147;52.388;13.390;2022-09-09T16:04:29;23.31;61.11
47757;SHT35;22147;52.388;13.390;2022-09-09T16:07:04;23.03;63.06
47757;SHT35;22147;52.388;13.390;2022-09-09T16:09:35;22.86;65.19
47757;SHT35;22147;52.388;13.390;2022-09-09T16:12:05;22.69;64.87
47757;SHT35;22147;52.388;13.390;2022-09-09T16:14:39;22.56;65.63
47757;SHT35;22147;52.388;13.390;2022-09-09T16:17:06;22.50;65.28
47757;SHT35;22147;52.388;13.390;2022-09-09T16:19:34;22.33;65.51
47757;SHT35;22147;52.388;13.390;2022-09-09T16:22:02;22.25;65.47
47757;SHT35;22147;52.388;13.390;2022-09-09T16:24:30;21.98;66.47
47757;SHT35;22147;52.388;13.390;2022-09-09T16:26:57;21.88;68.16
47757;SHT35;22147;52.388;13.390;2022-09-09T16:29:24;21.69;67.42
47757;SHT35;22147;52.388;13.390;2022-09-09T16:31:54;21.54;67.32
47757;SHT35;22147;52.388;13.390;2022-09-09T16:34:28;21.39;69.02
47757;SHT35;22147;52.388;13.390;2022-09-09T16:36:55;21.18;71.21
47757;SHT35;22147;52.388;13.390;2022-09-09T16:39:22;21.03;69.72
47757;SHT35;22147;52.388;13.390;2022-09-09T16:41:49;21.00;69.45
47757;SHT35;22147;52.388;13.390;2022-09-09T16:44:18;20.79;69.33
47757;SHT35;22147;52.388;13.390;2022-09-09T16:46:48;20.57;67.87
47757;SHT35;22147;52.388;13.390;2022-09-09T16:49:25;20.37;68.28
47757;SHT35;22147;52.388;13.390;2022-09-09T16:51:58;20.31;68.09
47757;SHT35;22147;52.388;13.390;2022-09-09T16:54:26;20.16;67.95
47757;SHT35;22147;52.388;13.390;2022-09-09T16:56:54;20.02;68.59
47757;SHT35;22147;52.388;13.390;2022-09-09T16:59:21;19.90;68.81
47757;SHT35;22147;52.388;13.390;2022-09-09T17:01:52;19.78;68.51
47757;SHT35;22147;52.388;13.390;2022-09-09T17:04:26;19.66;69.09
47757;SHT35;22147;52.388;13.390;2022-09-09T17:06:55;19.57;70.48
47757;SHT35;22147;52.388;13.390;2022-09-09T17:09:25;19.47;68.89
47757;SHT35;22147;52.388;13.390;2022-09-09T17:11:57;19.41;68.76